createdAt,value
2023-05-16T00:01:16.622Z,99570.52
2023-05-16T00:16:21.632Z,99579.38
2023-05-16T00:31:24.608Z,99582.46
2023-05-16T00:46:27.363Z,99586.43
2023-05-16T01:01:30.564Z,99597.71
2023-05-16T01:16:39.018Z,99594.83
2023-05-16T01:31:41.952Z,99598.45
2023-05-16T01:46:47.458Z,99608.69
2023-05-16T02:01:53.727Z,99629.91
2023-05-16T02:16:56.446Z,99643.33
2023-05-16T02:31:59.110Z,99658.39
2023-05-16T02:47:01.733Z,99651.50
2023-05-16T03:02:04.925Z,99653.67
2023-05-16T03:17:07.755Z,99652.34
2023-05-16T03:32:11.778Z,99662.42
2023-05-16T03:47:14.523Z,99668.53
2023-05-16T04:02:18.897Z,99685.96
2023-05-16T04:17:22.406Z,99716.14
2023-05-16T04:32:25.412Z,99752.82
2023-05-16T04:47:28.129Z,99784.69
2023-05-16T05:02:31.150Z,99743.69
2023-05-16T05:17:34.357Z,99764.30
2023-05-16T05:32:37.366Z,99805.27
2023-05-16T05:47:40.117Z,99835.29
2023-05-16T06:02:43.056Z,99856.02
2023-05-16T06:17:46.017Z,99843.13
2023-05-16T06:32:49.155Z,99845.88
2023-05-16T06:47:51.958Z,99849.81
2023-05-16T07:02:55.022Z,99861.88
2023-05-16T07:17:58.164Z,99879.05
2023-05-16T07:33:01.195Z,99875.91
2023-05-16T07:48:03.996Z,99862.20
2023-05-16T08:03:06.985Z,99877.23
2023-05-16T08:18:15.121Z,99883.98
2023-05-16T08:33:17.894Z,99902.02
2023-05-16T08:48:24.083Z,99925.79
2023-05-16T09:03:29.071Z,99930.10
2023-05-16T09:18:32.228Z,99945.92
2023-05-16T09:33:35.075Z,99952.28
2023-05-16T09:48:41.939Z,99966.40
2023-05-16T10:03:44.855Z,99996.96
2023-05-16T10:18:47.780Z,100013.02
2023-05-16T10:33:50.995Z,100004.98
2023-05-16T10:48:55.975Z,99996.85
2023-05-16T11:04:02.652Z,99995.27
2023-05-16T11:19:07.689Z,99991.46
2023-05-16T11:34:11.600Z,99984.48
2023-05-16T11:49:15.213Z,99991.30
2023-05-16T12:04:18.296Z,99983.58
2023-05-16T12:19:21.733Z,99996.98
2023-05-16T12:34:28.151Z,100000.20
2023-05-16T12:49:33.334Z,100004.45
2023-05-16T13:04:37.148Z,100015.94
2023-05-16T13:19:39.932Z,100024.02
2023-05-16T13:34:42.560Z,100018.97
2023-05-16T13:49:45.862Z,100029.16
2023-05-16T14:04:50.030Z,100047.39
2023-05-16T14:19:53.798Z,100048.52
2023-05-16T14:34:56.523Z,100048.48
2023-05-16T14:50:01.422Z,100039.05
2023-05-16T15:05:05.267Z,100041.58
2023-05-16T15:20:11.390Z,100036.98
2023-05-16T15:35:14.426Z,100068.67
2023-05-16T15:50:17.206Z,100076.73
2023-05-16T16:05:19.867Z,100089.27
2023-05-16T16:20:22.636Z,100088.25
2023-05-16T16:35:26.259Z,100092.29
2023-05-16T16:50:29.244Z,100092.73
2023-05-16T17:05:32.091Z,100112.80
2023-05-16T17:20:35.730Z,100119.81
2023-05-16T17:35:42.171Z,100134.61
2023-05-16T17:50:46.145Z,100152.81
2023-05-16T18:05:51.088Z,100164.75
2023-05-16T18:20:55.461Z,100173.89
2023-05-16T18:36:01.513Z,100174.95
2023-05-16T18:51:05.152Z,100183.33
2023-05-16T19:06:07.778Z,100206.88
2023-05-16T19:21:13.472Z,100225.08
2023-05-16T19:36:17.589Z,100229.41
2023-05-16T19:51:37.215Z,100241.45
2023-05-16T20:06:46.613Z,100252.20
2023-05-16T20:21:50.088Z,100252.38
2023-05-16T20:36:52.713Z,100275.98
2023-05-16T20:51:55.595Z,100268.73
2023-05-16T21:06:58.355Z,100268.04
2023-05-16T21:22:03.223Z,100299.05
2023-05-16T21:37:07.373Z,100298.14
2023-05-16T21:52:10.083Z,100297.82
2023-05-16T22:07:12.785Z,100295.23
2023-05-16T22:22:15.597Z,100293.92
2023-05-16T22:37:18.160Z,100301.95
2023-05-16T22:52:22.204Z,100298.73
2023-05-16T23:07:25.368Z,100296.94
2023-05-16T23:22:28.042Z,100294.27
2023-05-16T23:37:31.058Z,100307.33
2023-05-16T23:52:34.261Z,100298.50
